Terminal Aerodrome Forecast
Issued by NWS

Home | Current Version | Previous Version | Text Only | Print | Product List | Glossary On
Versions: 1 2 3 4 5 6 7 8 9 10 11 12
964
FTUS44 KLIX 272342
TAFGPT
TAF
KGPT 272342Z 2800/2824 14011KT P6SM SCT020 BKN040
     FM281000 16008KT P6SM BKN015
      TEMPO 2810/2814 BKN003
     FM281700 16010KT P6SM BKN035=

USA.gov is the U.S. government's official web portal to all federal, state and local government web resources and services.